sensor_id;sensor_type;location;lat;lon;timestamp;P1;durP1;ratioP1;P2;durP2;ratioP2
10007;SDS011;5043;41.766;26.204;2023-07-24T00:00:19;5.75;;;4.40;;
10007;SDS011;5043;41.766;26.204;2023-07-24T00:02:45;4.93;;;4.25;;
10007;SDS011;5043;41.766;26.204;2023-07-24T00:05:10;7.03;;;4.22;;
10007;SDS011;5043;41.766;26.204;2023-07-24T00:07:36;5.22;;;3.95;;
10007;SDS011;5043;41.766;26.204;2023-07-24T00:10:02;5.25;;;4.15;;
10007;SDS011;5043;41.766;26.204;2023-07-24T00:12:28;5.57;;;4.32;;
10007;SDS011;5043;41.766;26.204;2023-07-24T00:14:54;4.57;;;3.85;;
10007;SDS011;5043;41.766;26.204;2023-07-24T00:17:19;7.55;;;4.57;;
10007;SDS011;5043;41.766;26.204;2023-07-24T00:19:44;4.60;;;3.80;;
10007;SDS011;5043;41.766;26.204;2023-07-24T00:22:10;4.70;;;4.30;;
10007;SDS011;5043;41.766;26.204;2023-07-24T00:24:36;6.57;;;4.30;;
10007;SDS011;5043;41.766;26.204;2023-07-24T00:27:01;6.85;;;4.40;;
10007;SDS011;5043;41.766;26.204;2023-07-24T00:29:27;7.68;;;4.93;;
10007;SDS011;5043;41.766;26.204;2023-07-24T00:31:53;6.28;;;4.72;;
10007;SDS011;5043;41.766;26.204;2023-07-24T00:34:18;6.95;;;5.05;;
10007;SDS011;5043;41.766;26.204;2023-07-24T00:36:43;10.50;;;5.00;;
10007;SDS011;5043;41.766;26.204;2023-07-24T00:39:09;7.10;;;5.10;;
10007;SDS011;5043;41.766;26.204;2023-07-24T00:41:34;9.88;;;4.80;;
10007;SDS011;5043;41.766;26.204;2023-07-24T00:44:00;6.82;;;4.70;;
10007;SDS011;5043;41.766;26.204;2023-07-24T00:46:25;7.85;;;5.22;;
10007;SDS011;5043;41.766;26.204;2023-07-24T00:48:51;8.85;;;4.32;;
10007;SDS011;5043;41.766;26.204;2023-07-24T00:51:19;7.95;;;4.60;;
10007;SDS011;5043;41.766;26.204;2023-07-24T00:53:44;9.02;;;5.20;;
10007;SDS011;5043;41.766;26.204;2023-07-24T00:56:12;5.32;;;4.78;;
10007;SDS011;5043;41.766;26.204;2023-07-24T00:58:38;5.43;;;4.93;;
10007;SDS011;5043;41.766;26.204;2023-07-24T01:01:05;5.38;;;4.45;;
10007;SDS011;5043;41.766;26.204;2023-07-24T01:03:32;5.40;;;4.70;;
10007;SDS011;5043;41.766;26.204;2023-07-24T01:06:03;7.50;;;5.28;;
10007;SDS011;5043;41.766;26.204;2023-07-24T01:08:29;5.40;;;4.85;;
10007;SDS011;5043;41.766;26.204;2023-07-24T01:10:59;7.43;;;4.80;;
10007;SDS011;5043;41.766;26.204;2023-07-24T01:13:32;6.82;;;4.72;;
10007;SDS011;5043;41.766;26.204;2023-07-24T01:16:06;6.93;;;4.88;;
10007;SDS011;5043;41.766;26.204;2023-07-24T01:18:35;7.28;;;5.53;;
10007;SDS011;5043;41.766;26.204;2023-07-24T01:21:03;6.95;;;5.75;;
10007;SDS011;5043;41.766;26.204;2023-07-24T01:26:17;6.65;;;5.45;;
10007;SDS011;5043;41.766;26.204;2023-07-24T01:28:44;7.80;;;5.65;;
10007;SDS011;5043;41.766;26.204;2023-07-24T01:31:10;8.52;;;5.90;;
10007;SDS011;5043;41.766;26.204;2023-07-24T01:33:36;6.57;;;5.20;;
10007;SDS011;5043;41.766;26.204;2023-07-24T01:36:03;6.28;;;5.18;;
10007;SDS011;5043;41.766;26.204;2023-07-24T01:38:34;6.80;;;5.40;;
10007;SDS011;5043;41.766;26.204;2023-07-24T01:41:00;6.40;;;5.68;;
10007;SDS011;5043;41.766;26.204;2023-07-24T01:43:27;10.15;;;5.93;;
10007;SDS011;5043;41.766;26.204;2023-07-24T01:45:54;10.73;;;5.68;;
10007;SDS011;5043;41.766;26.204;2023-07-24T01:48:19;8.10;;;5.85;;
10007;SDS011;5043;41.766;26.204;2023-07-24T01:50:45;7.47;;;6.10;;
10007;SDS011;5043;41.766;26.204;2023-07-24T01:53:10;11.80;;;6.43;;
10007;SDS011;5043;41.766;26.204;2023-07-24T01:55:36;11.50;;;5.97;;
10007;SDS011;5043;41.766;26.204;2023-07-24T01:58:01;8.07;;;6.03;;
10007;SDS011;5043;41.766;26.204;2023-07-24T02:00:27;9.35;;;6.00;;
10007;SDS011;5043;41.766;26.204;2023-07-24T02:02:52;8.88;;;6.03;;
10007;SDS011;5043;41.766;26.204;2023-07-24T02:05:17;8.23;;;5.80;;
10007;SDS011;5043;41.766;26.204;2023-07-24T02:07:43;9.02;;;6.82;;
10007;SDS011;5043;41.766;26.204;2023-07-24T02:10:09;7.93;;;6.43;;
10007;SDS011;5043;41.766;26.204;2023-07-24T02:12:34;13.38;;;6.95;;
10007;SDS011;5043;41.766;26.204;2023-07-24T02:15:00;12.25;;;7.07;;
10007;SDS011;5043;41.766;26.204;2023-07-24T02:17:25;10.30;;;6.47;;
10007;SDS011;5043;41.766;26.204;2023-07-24T02:19:51;7.95;;;5.82;;
10007;SDS011;5043;41.766;26.204;2023-07-24T02:22:17;10.20;;;6.03;;
10007;SDS011;5043;41.766;26.204;2023-07-24T02:24:43;12.98;;;6.53;;
10007;SDS011;5043;41.766;26.204;2023-07-24T02:27:11;10.82;;;6.35;;
10007;SDS011;5043;41.766;26.204;2023-07-24T02:29:49;7.05;;;5.53;;
10007;SDS011;5043;41.766;26.204;2023-07-24T02:32:14;11.48;;;6.93;;
10007;SDS011;5043;41.766;26.204;2023-07-24T02:34:40;10.40;;;6.78;;
10007;SDS011;5043;41.766;26.204;2023-07-24T02:37:05;9.90;;;6.22;;
10007;SDS011;5043;41.766;26.204;2023-07-24T02:39:31;9.90;;;7.18;;
10007;SDS011;5043;41.766;26.204;2023-07-24T02:41:56;8.77;;;6.85;;
10007;SDS011;5043;41.766;26.204;2023-07-24T02:44:21;10.48;;;6.10;;
10007;SDS011;5043;41.766;26.204;2023-07-24T02:46:47;11.10;;;5.57;;
10007;SDS011;5043;41.766;26.204;2023-07-24T02:49:12;8.80;;;7.03;;
10007;SDS011;5043;41.766;26.204;2023-07-24T02:51:38;8.15;;;6.45;;
10007;SDS011;5043;41.766;26.204;2023-07-24T02:54:03;7.18;;;6.30;;
10007;SDS011;5043;41.766;26.204;2023-07-24T02:56:28;9.32;;;7.13;;
10007;SDS011;5043;41.766;26.204;2023-07-24T02:58:54;9.68;;;6.15;;
10007;SDS011;5043;41.766;26.204;2023-07-24T03:01:19;9.23;;;6.35;;
10007;SDS011;5043;41.766;26.204;2023-07-24T03:03:45;6.78;;;5.85;;
10007;SDS011;5043;41.766;26.204;2023-07-24T03:06:10;7.35;;;5.88;;
10007;SDS011;5043;41.766;26.204;2023-07-24T03:08:36;8.93;;;6.18;;
10007;SDS011;5043;41.766;26.204;2023-07-24T03:11:04;14.68;;;6.90;;
10007;SDS011;5043;41.766;26.204;2023-07-24T03:13:30;7.10;;;6.40;;
10007;SDS011;5043;41.766;26.204;2023-07-24T03:15:56;8.32;;;6.50;;
10007;SDS011;5043;41.766;26.204;2023-07-24T03:18:22;12.73;;;6.88;;
10007;SDS011;5043;41.766;26.204;2023-07-24T03:20:48;9.38;;;6.80;;
10007;SDS011;5043;41.766;26.204;2023-07-24T03:23:13;8.48;;;6.47;;
10007;SDS011;5043;41.766;26.204;2023-07-24T03:25:39;8.70;;;6.85;;
10007;SDS011;5043;41.766;26.204;2023-07-24T03:28:05;8.18;;;6.30;;
10007;SDS011;5043;41.766;26.204;2023-07-24T03:30:31;7.70;;;6.63;;
10007;SDS011;5043;41.766;26.204;2023-07-24T03:32:56;11.77;;;6.68;;
10007;SDS011;5043;41.766;26.204;2023-07-24T03:35:22;11.93;;;7.30;;
10007;SDS011;5043;41.766;26.204;2023-07-24T03:37:48;7.57;;;6.72;;
10007;SDS011;5043;41.766;26.204;2023-07-24T03:40:13;12.88;;;6.90;;
10007;SDS011;5043;41.766;26.204;2023-07-24T03:42:40;9.75;;;7.15;;
10007;SDS011;5043;41.766;26.204;2023-07-24T03:45:06;6.95;;;6.22;;
10007;SDS011;5043;41.766;26.204;2023-07-24T03:47:32;8.20;;;6.45;;
10007;SDS011;5043;41.766;26.204;2023-07-24T03:49:58;14.50;;;6.80;;
10007;SDS011;5043;41.766;26.204;2023-07-24T03:52:23;9.05;;;6.45;;
10007;SDS011;5043;41.766;26.204;2023-07-24T03:54:48;9.93;;;6.72;;
10007;SDS011;5043;41.766;26.204;2023-07-24T03:57:14;9.18;;;6.60;;
10007;SDS011;5043;41.766;26.204;2023-07-24T03:59:39;8.05;;;6.45;;
10007;SDS011;5043;41.766;26.204;2023-07-24T04:02:05;12.38;;;6.55;;
10007;SDS011;5043;41.766;26.204;2023-07-24T04:04:31;8.15;;;6.40;;
10007;SDS011;5043;41.766;26.204;2023-07-24T04:06:58;9.98;;;5.95;;
10007;SDS011;5043;41.766;26.204;2023-07-24T04:09:23;6.85;;;6.15;;
10007;SDS011;5043;41.766;26.204;2023-07-24T04:11:49;6.97;;;6.28;;
10007;SDS011;5043;41.766;26.204;2023-07-24T04:14:14;12.65;;;7.18;;
10007;SDS011;5043;41.766;26.204;2023-07-24T04:16:39;6.78;;;5.90;;
10007;SDS011;5043;41.766;26.204;2023-07-24T04:19:05;9.15;;;6.30;;
10007;SDS011;5043;41.766;26.204;2023-07-24T04:21:30;8.55;;;6.57;;
10007;SDS011;5043;41.766;26.204;2023-07-24T04:23:56;11.80;;;7.30;;
10007;SDS011;5043;41.766;26.204;2023-07-24T04:26:21;9.63;;;7.32;;
10007;SDS011;5043;41.766;26.204;2023-07-24T04:28:47;9.63;;;7.85;;
10007;SDS011;5043;41.766;26.204;2023-07-24T04:31:12;18.00;;;11.15;;
10007;SDS011;5043;41.766;26.204;2023-07-24T04:33:38;18.08;;;11.75;;
10007;SDS011;5043;41.766;26.204;2023-07-24T04:36:04;14.85;;;10.55;;
10007;SDS011;5043;41.766;26.204;2023-07-24T04:38:29;16.63;;;11.32;;
10007;SDS011;5043;41.766;26.204;2023-07-24T04:40:56;17.05;;;12.25;;
10007;SDS011;5043;41.766;26.204;2023-07-24T04:43:22;20.52;;;12.45;;
10007;SDS011;5043;41.766;26.204;2023-07-24T04:45:47;17.15;;;12.45;;
10007;SDS011;5043;41.766;26.204;2023-07-24T04:48:12;22.27;;;13.50;;
10007;SDS011;5043;41.766;26.204;2023-07-24T04:50:38;16.23;;;12.68;;
10007;SDS011;5043;41.766;26.204;2023-07-24T04:53:03;18.10;;;12.88;;
10007;SDS011;5043;41.766;26.204;2023-07-24T04:55:29;14.35;;;10.68;;
10007;SDS011;5043;41.766;26.204;2023-07-24T04:57:54;17.38;;;11.27;;
10007;SDS011;5043;41.766;26.204;2023-07-24T05:00:20;14.77;;;10.77;;
10007;SDS011;5043;41.766;26.204;2023-07-24T05:02:45;20.33;;;12.35;;
10007;SDS011;5043;41.766;26.204;2023-07-24T05:05:11;16.85;;;11.70;;
10007;SDS011;5043;41.766;26.204;2023-07-24T05:07:36;17.35;;;12.10;;
10007;SDS011;5043;41.766;26.204;2023-07-24T05:10:02;19.52;;;11.57;;
10007;SDS011;5043;41.766;26.204;2023-07-24T05:12:27;13.18;;;10.15;;
10007;SDS011;5043;41.766;26.204;2023-07-24T05:14:53;16.90;;;11.13;;
10007;SDS011;5043;41.766;26.204;2023-07-24T05:17:18;17.27;;;11.10;;
10007;SDS011;5043;41.766;26.204;2023-07-24T05:19:43;15.65;;;10.65;;
10007;SDS011;5043;41.766;26.204;2023-07-24T05:22:09;18.50;;;10.73;;
10007;SDS011;5043;41.766;26.204;2023-07-24T05:24:38;20.50;;;10.40;;
10007;SDS011;5043;41.766;26.204;2023-07-24T05:27:04;17.88;;;11.30;;
10007;SDS011;5043;41.766;26.204;2023-07-24T05:29:30;16.77;;;11.20;;
10007;SDS011;5043;41.766;26.204;2023-07-24T05:31:56;14.30;;;11.07;;
10007;SDS011;5043;41.766;26.204;2023-07-24T05:34:23;16.17;;;9.93;;
10007;SDS011;5043;41.766;26.204;2023-07-24T05:36:50;17.70;;;11.73;;
10007;SDS011;5043;41.766;26.204;2023-07-24T05:39:15;23.33;;;10.77;;
10007;SDS011;5043;41.766;26.204;2023-07-24T05:41:41;18.73;;;11.85;;
10007;SDS011;5043;41.766;26.204;2023-07-24T05:44:07;19.13;;;10.55;;
10007;SDS011;5043;41.766;26.204;2023-07-24T05:46:33;21.73;;;11.93;;
10007;SDS011;5043;41.766;26.204;2023-07-24T05:48:58;18.17;;;11.57;;
10007;SDS011;5043;41.766;26.204;2023-07-24T05:51:27;15.82;;;10.95;;
10007;SDS011;5043;41.766;26.204;2023-07-24T05:53:53;15.98;;;12.10;;
10007;SDS011;5043;41.766;26.204;2023-07-24T05:56:18;20.65;;;12.65;;
10007;SDS011;5043;41.766;26.204;2023-07-24T05:58:44;18.88;;;12.63;;
10007;SDS011;5043;41.766;26.204;2023-07-24T06:01:09;18.75;;;12.73;;
10007;SDS011;5043;41.766;26.204;2023-07-24T06:03:35;21.55;;;13.43;;
10007;SDS011;5043;41.766;26.204;2023-07-24T06:06:01;20.75;;;14.73;;
10007;SDS011;5043;41.766;26.204;2023-07-24T06:08:27;23.88;;;13.75;;
10007;SDS011;5043;41.766;26.204;2023-07-24T06:10:53;20.92;;;13.50;;
10007;SDS011;5043;41.766;26.204;2023-07-24T06:13:19;18.73;;;13.18;;
10007;SDS011;5043;41.766;26.204;2023-07-24T06:15:48;20.70;;;11.93;;
10007;SDS011;5043;41.766;26.204;2023-07-24T06:18:14;18.58;;;11.77;;
10007;SDS011;5043;41.766;26.204;2023-07-24T06:20:41;17.92;;;11.82;;
10007;SDS011;5043;41.766;26.204;2023-07-24T06:23:06;15.85;;;11.32;;
10007;SDS011;5043;41.766;26.204;2023-07-24T06:25:32;18.40;;;10.95;;
10007;SDS011;5043;41.766;26.204;2023-07-24T06:27:58;15.20;;;9.77;;
10007;SDS011;5043;41.766;26.204;2023-07-24T06:30:24;16.25;;;9.27;;
10007;SDS011;5043;41.766;26.204;2023-07-24T06:32:53;10.23;;;8.55;;
10007;SDS011;5043;41.766;26.204;2023-07-24T06:35:18;13.65;;;8.20;;
10007;SDS011;5043;41.766;26.204;2023-07-24T06:37:44;11.68;;;8.55;;
10007;SDS011;5043;41.766;26.204;2023-07-24T06:40:11;9.68;;;7.70;;
10007;SDS011;5043;41.766;26.204;2023-07-24T06:42:37;10.32;;;8.48;;
10007;SDS011;5043;41.766;26.204;2023-07-24T06:45:03;11.52;;;8.25;;
10007;SDS011;5043;41.766;26.204;2023-07-24T06:47:29;11.52;;;8.80;;
10007;SDS011;5043;41.766;26.204;2023-07-24T06:49:54;9.52;;;7.95;;
10007;SDS011;5043;41.766;26.204;2023-07-24T06:52:20;10.20;;;7.47;;
10007;SDS011;5043;41.766;26.204;2023-07-24T06:54:46;9.30;;;6.93;;
10007;SDS011;5043;41.766;26.204;2023-07-24T06:57:11;12.13;;;6.80;;
10007;SDS011;5043;41.766;26.204;2023-07-24T06:59:37;9.50;;;6.80;;
10007;SDS011;5043;41.766;26.204;2023-07-24T07:02:02;10.77;;;6.55;;
10007;SDS011;5043;41.766;26.204;2023-07-24T07:04:28;8.98;;;6.75;;
10007;SDS011;5043;41.766;26.204;2023-07-24T07:06:53;8.68;;;6.63;;
10007;SDS011;5043;41.766;26.204;2023-07-24T07:09:19;8.98;;;6.75;;
10007;SDS011;5043;41.766;26.204;2023-07-24T07:11:45;11.02;;;6.63;;
10007;SDS011;5043;41.766;26.204;2023-07-24T07:14:10;10.63;;;7.30;;
10007;SDS011;5043;41.766;26.204;2023-07-24T07:16:36;10.00;;;6.63;;
10007;SDS011;5043;41.766;26.204;2023-07-24T07:19:02;7.88;;;6.00;;
10007;SDS011;5043;41.766;26.204;2023-07-24T07:21:27;9.48;;;6.30;;
10007;SDS011;5043;41.766;26.204;2023-07-24T07:23:52;8.98;;;6.40;;
10007;SDS011;5043;41.766;26.204;2023-07-24T07:26:18;9.45;;;6.13;;
10007;SDS011;5043;41.766;26.204;2023-07-24T07:28:44;6.82;;;5.72;;
10007;SDS011;5043;41.766;26.204;2023-07-24T07:31:12;7.43;;;5.47;;
10007;SDS011;5043;41.766;26.204;2023-07-24T07:33:38;15.68;;;6.25;;
10007;SDS011;5043;41.766;26.204;2023-07-24T07:36:04;10.60;;;6.13;;
10007;SDS011;5043;41.766;26.204;2023-07-24T07:38:31;7.80;;;6.20;;
10007;SDS011;5043;41.766;26.204;2023-07-24T07:40:57;9.85;;;6.05;;
10007;SDS011;5043;41.766;26.204;2023-07-24T07:43:22;11.95;;;6.07;;
10007;SDS011;5043;41.766;26.204;2023-07-24T07:45:48;7.68;;;6.13;;
10007;SDS011;5043;41.766;26.204;2023-07-24T07:48:14;7.50;;;5.88;;
10007;SDS011;5043;41.766;26.204;2023-07-24T07:50:40;7.22;;;5.30;;
10007;SDS011;5043;41.766;26.204;2023-07-24T07:53:05;7.97;;;5.00;;
10007;SDS011;5043;41.766;26.204;2023-07-24T07:55:31;7.95;;;5.05;;
10007;SDS011;5043;41.766;26.204;2023-07-24T07:57:57;9.68;;;5.00;;
10007;SDS011;5043;41.766;26.204;2023-07-24T08:00:22;9.93;;;4.80;;
10007;SDS011;5043;41.766;26.204;2023-07-24T08:02:51;14.13;;;7.07;;
10007;SDS011;5043;41.766;26.204;2023-07-24T08:05:17;5.20;;;4.65;;
10007;SDS011;5043;41.766;26.204;2023-07-24T08:07:42;6.53;;;4.78;;
10007;SDS011;5043;41.766;26.204;2023-07-24T08:10:08;8.32;;;5.47;;
10007;SDS011;5043;41.766;26.204;2023-07-24T08:12:33;7.28;;;4.03;;
10007;SDS011;5043;41.766;26.204;2023-07-24T08:14:59;6.60;;;5.10;;
10007;SDS011;5043;41.766;26.204;2023-07-24T08:17:25;5.50;;;4.93;;
10007;SDS011;5043;41.766;26.204;2023-07-24T08:19:50;6.55;;;4.72;;
10007;SDS011;5043;41.766;26.204;2023-07-24T08:22:16;10.82;;;4.85;;
10007;SDS011;5043;41.766;26.204;2023-07-24T08:24:41;5.45;;;4.53;;
10007;SDS011;5043;41.766;26.204;2023-07-24T08:27:07;5.82;;;4.70;;
10007;SDS011;5043;41.766;26.204;2023-07-24T08:29:32;4.70;;;4.30;;
10007;SDS011;5043;41.766;26.204;2023-07-24T08:32:00;7.32;;;4.80;;
10007;SDS011;5043;41.766;26.204;2023-07-24T08:34:25;7.20;;;4.47;;
10007;SDS011;5043;41.766;26.204;2023-07-24T08:36:50;13.05;;;4.53;;
10007;SDS011;5043;41.766;26.204;2023-07-24T08:39:16;10.10;;;3.95;;
10007;SDS011;5043;41.766;26.204;2023-07-24T08:41:41;8.15;;;4.30;;
10007;SDS011;5043;41.766;26.204;2023-07-24T08:44:07;3.92;;;3.60;;
10007;SDS011;5043;41.766;26.204;2023-07-24T08:46:37;8.65;;;4.25;;
10007;SDS011;5043;41.766;26.204;2023-07-24T08:52:32;6.10;;;3.92;;
10007;SDS011;5043;41.766;26.204;2023-07-24T08:54:57;6.78;;;4.15;;
10007;SDS011;5043;41.766;26.204;2023-07-24T08:57:24;6.28;;;4.05;;
10007;SDS011;5043;41.766;26.204;2023-07-24T08:59:49;4.80;;;4.18;;
10007;SDS011;5043;41.766;26.204;2023-07-24T09:02:15;6.50;;;4.13;;
10007;SDS011;5043;41.766;26.204;2023-07-24T09:04:40;7.80;;;4.20;;
10007;SDS011;5043;41.766;26.204;2023-07-24T09:07:06;4.28;;;3.80;;
10007;SDS011;5043;41.766;26.204;2023-07-24T09:09:32;5.22;;;4.13;;
10007;SDS011;5043;41.766;26.204;2023-07-24T09:11:57;5.53;;;4.72;;
10007;SDS011;5043;41.766;26.204;2023-07-24T09:14:27;5.57;;;4.32;;
10007;SDS011;5043;41.766;26.204;2023-07-24T09:17:05;7.32;;;4.45;;
10007;SDS011;5043;41.766;26.204;2023-07-24T09:19:32;6.40;;;3.95;;
10007;SDS011;5043;41.766;26.204;2023-07-24T09:22:11;6.97;;;3.65;;
10007;SDS011;5043;41.766;26.204;2023-07-24T09:27:17;4.50;;;3.83;;
10007;SDS011;5043;41.766;26.204;2023-07-24T09:29:43;4.65;;;4.25;;
10007;SDS011;5043;41.766;26.204;2023-07-24T09:32:18;4.43;;;3.33;;
10007;SDS011;5043;41.766;26.204;2023-07-24T09:34:47;6.38;;;4.00;;
10007;SDS011;5043;41.766;26.204;2023-07-24T09:37:30;4.40;;;3.47;;
10007;SDS011;5043;41.766;26.204;2023-07-24T09:39:57;4.53;;;3.85;;
10007;SDS011;5043;41.766;26.204;2023-07-24T09:44:58;4.97;;;3.95;;
10007;SDS011;5043;41.766;26.204;2023-07-24T09:47:25;7.40;;;3.70;;
10007;SDS011;5043;41.766;26.204;2023-07-24T09:49:51;6.85;;;4.38;;
10007;SDS011;5043;41.766;26.204;2023-07-24T09:52:19;4.53;;;4.13;;
10007;SDS011;5043;41.766;26.204;2023-07-24T09:57:24;7.18;;;4.05;;
10007;SDS011;5043;41.766;26.204;2023-07-24T09:59:51;4.45;;;3.78;;
10007;SDS011;5043;41.766;26.204;2023-07-24T10:02:18;7.65;;;3.95;;
10007;SDS011;5043;41.766;26.204;2023-07-24T10:04:44;4.25;;;3.85;;
10007;SDS011;5043;41.766;26.204;2023-07-24T10:07:10;4.35;;;3.78;;
10007;SDS011;5043;41.766;26.204;2023-07-24T10:09:36;4.00;;;3.65;;
10007;SDS011;5043;41.766;26.204;2023-07-24T10:12:02;4.43;;;3.78;;
10007;SDS011;5043;41.766;26.204;2023-07-24T10:14:28;5.10;;;3.70;;
10007;SDS011;5043;41.766;26.204;2023-07-24T10:16:55;6.00;;;3.65;;
10007;SDS011;5043;41.766;26.204;2023-07-24T10:19:21;4.43;;;3.80;;
10007;SDS011;5043;41.766;26.204;2023-07-24T10:21:50;4.43;;;3.70;;
10007;SDS011;5043;41.766;26.204;2023-07-24T10:24:17;5.63;;;4.40;;
10007;SDS011;5043;41.766;26.204;2023-07-24T10:26:43;5.90;;;3.97;;
10007;SDS011;5043;41.766;26.204;2023-07-24T10:29:09;4.10;;;3.80;;
10007;SDS011;5043;41.766;26.204;2023-07-24T10:31:35;4.10;;;3.70;;
10007;SDS011;5043;41.766;26.204;2023-07-24T10:34:06;5.85;;;3.90;;
10007;SDS011;5043;41.766;26.204;2023-07-24T10:36:36;5.28;;;3.75;;
10007;SDS011;5043;41.766;26.204;2023-07-24T10:39:13;5.68;;;4.20;;
10007;SDS011;5043;41.766;26.204;2023-07-24T10:41:39;4.97;;;3.63;;
10007;SDS011;5043;41.766;26.204;2023-07-24T10:44:05;4.72;;;3.17;;
10007;SDS011;5043;41.766;26.204;2023-07-24T10:46:37;5.68;;;3.70;;
10007;SDS011;5043;41.766;26.204;2023-07-24T10:49:09;4.43;;;3.78;;
10007;SDS011;5043;41.766;26.204;2023-07-24T10:51:35;4.90;;;4.22;;
10007;SDS011;5043;41.766;26.204;2023-07-24T10:54:03;4.78;;;4.30;;
10007;SDS011;5043;41.766;26.204;2023-07-24T10:56:29;4.53;;;4.05;;
10007;SDS011;5043;41.766;26.204;2023-07-24T10:58:55;5.72;;;4.18;;
10007;SDS011;5043;41.766;26.204;2023-07-24T11:01:20;4.05;;;3.65;;
10007;SDS011;5043;41.766;26.204;2023-07-24T11:03:46;5.78;;;5.03;;
10007;SDS011;5043;41.766;26.204;2023-07-24T11:06:14;5.13;;;4.50;;
10007;SDS011;5043;41.766;26.204;2023-07-24T11:08:55;4.82;;;4.25;;
10007;SDS011;5043;41.766;26.204;2023-07-24T11:11:22;8.18;;;5.20;;
10007;SDS011;5043;41.766;26.204;2023-07-24T11:13:53;4.72;;;4.15;;
10007;SDS011;5043;41.766;26.204;2023-07-24T11:16:18;6.55;;;4.70;;
10007;SDS011;5043;41.766;26.204;2023-07-24T11:18:45;4.40;;;4.00;;
10007;SDS011;5043;41.766;26.204;2023-07-24T11:21:14;5.53;;;5.00;;
10007;SDS011;5043;41.766;26.204;2023-07-24T11:23:46;6.75;;;5.10;;
10007;SDS011;5043;41.766;26.204;2023-07-24T11:26:21;5.40;;;4.88;;
10007;SDS011;5043;41.766;26.204;2023-07-24T11:28:48;5.75;;;4.60;;
10007;SDS011;5043;41.766;26.204;2023-07-24T11:31:15;6.18;;;5.57;;
10007;SDS011;5043;41.766;26.204;2023-07-24T11:33:44;5.35;;;4.85;;
10007;SDS011;5043;41.766;26.204;2023-07-24T11:36:10;5.25;;;4.75;;
10007;SDS011;5043;41.766;26.204;2023-07-24T11:38:37;6.53;;;5.55;;
10007;SDS011;5043;41.766;26.204;2023-07-24T11:41:04;6.50;;;5.00;;
10007;SDS011;5043;41.766;26.204;2023-07-24T11:43:30;6.05;;;4.50;;
10007;SDS011;5043;41.766;26.204;2023-07-24T11:45:55;5.32;;;4.82;;
10007;SDS011;5043;41.766;26.204;2023-07-24T11:48:22;5.55;;;5.05;;
10007;SDS011;5043;41.766;26.204;2023-07-24T11:50:50;7.85;;;5.20;;
10007;SDS011;5043;41.766;26.204;2023-07-24T11:53:20;5.70;;;4.95;;
10007;SDS011;5043;41.766;26.204;2023-07-24T11:55:53;5.63;;;4.60;;
10007;SDS011;5043;41.766;26.204;2023-07-24T11:58:20;5.32;;;4.80;;
10007;SDS011;5043;41.766;26.204;2023-07-24T12:00:46;6.03;;;5.45;;
10007;SDS011;5043;41.766;26.204;2023-07-24T12:03:14;6.05;;;5.45;;
10007;SDS011;5043;41.766;26.204;2023-07-24T12:06:00;6.35;;;5.75;;
10007;SDS011;5043;41.766;26.204;2023-07-24T12:08:34;7.00;;;6.25;;
10007;SDS011;5043;41.766;26.204;2023-07-24T12:11:01;9.15;;;5.25;;
10007;SDS011;5043;41.766;26.204;2023-07-24T12:13:27;6.22;;;5.63;;
10007;SDS011;5043;41.766;26.204;2023-07-24T12:15:53;6.65;;;5.97;;
10007;SDS011;5043;41.766;26.204;2023-07-24T12:18:19;11.23;;;5.68;;
10007;SDS011;5043;41.766;26.204;2023-07-24T12:20:46;7.22;;;6.10;;
10007;SDS011;5043;41.766;26.204;2023-07-24T12:23:12;7.25;;;6.30;;
10007;SDS011;5043;41.766;26.204;2023-07-24T12:25:38;9.27;;;6.03;;
10007;SDS011;5043;41.766;26.204;2023-07-24T12:28:03;7.75;;;6.18;;
10007;SDS011;5043;41.766;26.204;2023-07-24T12:30:29;7.07;;;6.38;;
10007;SDS011;5043;41.766;26.204;2023-07-24T12:32:55;8.02;;;6.05;;
10007;SDS011;5043;41.766;26.204;2023-07-24T12:35:20;6.85;;;6.07;;
10007;SDS011;5043;41.766;26.204;2023-07-24T12:37:48;7.03;;;6.30;;
10007;SDS011;5043;41.766;26.204;2023-07-24T12:40:24;6.80;;;6.10;;
10007;SDS011;5043;41.766;26.204;2023-07-24T12:42:51;7.15;;;6.40;;
10007;SDS011;5043;41.766;26.204;2023-07-24T12:45:18;7.03;;;6.10;;
10007;SDS011;5043;41.766;26.204;2023-07-24T12:47:44;8.20;;;7.20;;
10007;SDS011;5043;41.766;26.204;2023-07-24T12:50:09;6.85;;;6.22;;
10007;SDS011;5043;41.766;26.204;2023-07-24T12:52:35;7.22;;;6.53;;
10007;SDS011;5043;41.766;26.204;2023-07-24T12:55:01;7.03;;;6.22;;
10007;SDS011;5043;41.766;26.204;2023-07-24T12:57:26;10.95;;;7.00;;
10007;SDS011;5043;41.766;26.204;2023-07-24T12:59:52;7.15;;;6.40;;
10007;SDS011;5043;41.766;26.204;2023-07-24T13:02:18;6.88;;;6.25;;
10007;SDS011;5043;41.766;26.204;2023-07-24T13:04:44;7.97;;;7.18;;
10007;SDS011;5043;41.766;26.204;2023-07-24T13:07:09;8.38;;;6.95;;
10007;SDS011;5043;41.766;26.204;2023-07-24T13:09:35;7.32;;;6.63;;
10007;SDS011;5043;41.766;26.204;2023-07-24T13:12:01;7.22;;;6.60;;
10007;SDS011;5043;41.766;26.204;2023-07-24T13:14:26;8.18;;;7.38;;
10007;SDS011;5043;41.766;26.204;2023-07-24T13:16:53;9.73;;;7.30;;
10007;SDS011;5043;41.766;26.204;2023-07-24T13:19:19;8.40;;;7.50;;
10007;SDS011;5043;41.766;26.204;2023-07-24T13:21:45;8.05;;;7.35;;
10007;SDS011;5043;41.766;26.204;2023-07-24T13:24:12;10.38;;;7.90;;
10007;SDS011;5043;41.766;26.204;2023-07-24T13:26:38;9.63;;;8.23;;
10007;SDS011;5043;41.766;26.204;2023-07-24T13:29:05;8.35;;;7.50;;
10007;SDS011;5043;41.766;26.204;2023-07-24T13:31:31;9.70;;;8.05;;
10007;SDS011;5043;41.766;26.204;2023-07-24T13:33:57;7.93;;;7.22;;
10007;SDS011;5043;41.766;26.204;2023-07-24T13:36:22;8.82;;;8.07;;
10007;SDS011;5043;41.766;26.204;2023-07-24T13:38:48;8.60;;;7.80;;
10007;SDS011;5043;41.766;26.204;2023-07-24T13:41:15;9.23;;;8.43;;
10007;SDS011;5043;41.766;26.204;2023-07-24T13:43:43;9.52;;;8.02;;
10007;SDS011;5043;41.766;26.204;2023-07-24T13:46:20;9.32;;;8.45;;
10007;SDS011;5043;41.766;26.204;2023-07-24T13:48:46;8.52;;;7.80;;
10007;SDS011;5043;41.766;26.204;2023-07-24T13:51:12;9.25;;;8.23;;
10007;SDS011;5043;41.766;26.204;2023-07-24T13:53:37;9.70;;;8.70;;
10007;SDS011;5043;41.766;26.204;2023-07-24T13:56:04;9.00;;;8.10;;
10007;SDS011;5043;41.766;26.204;2023-07-24T13:58:29;9.27;;;8.45;;
10007;SDS011;5043;41.766;26.204;2023-07-24T14:00:55;9.52;;;8.63;;
10007;SDS011;5043;41.766;26.204;2023-07-24T14:03:21;9.77;;;8.88;;
10007;SDS011;5043;41.766;26.204;2023-07-24T14:05:49;9.60;;;7.68;;
10007;SDS011;5043;41.766;26.204;2023-07-24T14:08:14;8.95;;;8.05;;
10007;SDS011;5043;41.766;26.204;2023-07-24T14:10:40;9.10;;;8.25;;
10007;SDS011;5043;41.766;26.204;2023-07-24T14:13:06;12.10;;;8.38;;
10007;SDS011;5043;41.766;26.204;2023-07-24T14:15:31;9.38;;;8.57;;
10007;SDS011;5043;41.766;26.204;2023-07-24T14:17:57;9.23;;;8.43;;
10007;SDS011;5043;41.766;26.204;2023-07-24T14:20:23;8.82;;;8.13;;
10007;SDS011;5043;41.766;26.204;2023-07-24T14:22:49;8.70;;;7.95;;
10007;SDS011;5043;41.766;26.204;2023-07-24T14:25:14;9.00;;;8.20;;
10007;SDS011;5043;41.766;26.204;2023-07-24T14:27:40;9.05;;;8.30;;
10007;SDS011;5043;41.766;26.204;2023-07-24T14:30:05;8.50;;;7.70;;
10007;SDS011;5043;41.766;26.204;2023-07-24T14:32:32;9.07;;;8.18;;
10007;SDS011;5043;41.766;26.204;2023-07-24T14:34:58;9.10;;;8.20;;
10007;SDS011;5043;41.766;26.204;2023-07-24T14:37:24;10.52;;;9.05;;
10007;SDS011;5043;41.766;26.204;2023-07-24T14:39:49;8.55;;;7.75;;
10007;SDS011;5043;41.766;26.204;2023-07-24T14:42:15;9.48;;;7.95;;
10007;SDS011;5043;41.766;26.204;2023-07-24T14:44:40;8.10;;;7.38;;
10007;SDS011;5043;41.766;26.204;2023-07-24T14:47:06;8.82;;;7.93;;
10007;SDS011;5043;41.766;26.204;2023-07-24T14:49:33;9.70;;;6.53;;
10007;SDS011;5043;41.766;26.204;2023-07-24T14:51:58;7.25;;;6.53;;